KMKL

Mc Kellar-Sipes Regional Airport

Jackson, Tennessee, USA
METAR KMKL 191053Z AUTO 00000KT 6SM BR CLR 19/18 A2999 RMK AO2 SLP149 T01940183
Observed Flight Rules
Sep-19 @ 10:53 UTC (11 minutes ago) Visual Flight Rules
Visibility Clouds Conditions
6 miles
  • Clear skies
  • Mist
Temperatures Readings
Current 19°C / 66°F
Dewpoint 18°C / 64°F
Humidity 94%
Altimeter 29.99" Hg
Pressure 1014.9 hPa
Elevation 128
METAR KMKL 191053Z AUTO 00000KT 6SM BR CLR 19/18 A2999 RMK AO2 SLP149 T01940183
Observed Flight Rules
Sep-19 @ 10:53 UTC
(11 minutes ago)
VFR
Clouds
  • Clear skies
Conditions
  • Mist
Temperature Dewpoint
19°C / 66°F 18°C / 64°F
Humidity Altimeter Pressure
94% 29.99" Hg 1014.9 hPa